sensor_id;sensor_type;location;lat;lon;timestamp;temperature;humidity
31809;DHT22;18379;48.208;-1.518;2022-10-26T00:02:25;16.90;99.90
31809;DHT22;18379;48.208;-1.518;2022-10-26T00:13:42;16.90;99.90
31809;DHT22;18379;48.208;-1.518;2022-10-26T00:18:44;16.80;99.90
31809;DHT22;18379;48.208;-1.518;2022-10-26T12:00:18;18.30;99.90
31809;DHT22;18379;48.208;-1.518;2022-10-26T12:05:26;18.40;99.90
31809;DHT22;18379;48.208;-1.518;2022-10-26T12:10:36;18.60;99.90
31809;DHT22;18379;48.208;-1.518;2022-10-26T12:15:48;18.80;99.90
31809;DHT22;18379;48.208;-1.518;2022-10-26T12:41:57;19.30;99.90
31809;DHT22;18379;48.208;-1.518;2022-10-26T12:46:58;19.30;99.90
31809;DHT22;18379;48.208;-1.518;2022-10-26T12:51:59;19.30;99.90
31809;DHT22;18379;48.208;-1.518;2022-10-26T12:57:23;19.30;99.90
31809;DHT22;18379;48.208;-1.518;2022-10-26T13:02:35;19.40;99.90
31809;DHT22;18379;48.208;-1.518;2022-10-26T13:07:39;19.60;99.90
31809;DHT22;18379;48.208;-1.518;2022-10-26T13:12:56;19.50;99.90
31809;DHT22;18379;48.208;-1.518;2022-10-26T13:18:17;19.60;99.90
31809;DHT22;18379;48.208;-1.518;2022-10-26T13:23:24;19.80;99.90
31809;DHT22;18379;48.208;-1.518;2022-10-26T13:28:53;19.80;99.90
31809;DHT22;18379;48.208;-1.518;2022-10-26T13:34:14;20.10;99.90
31809;DHT22;18379;48.208;-1.518;2022-10-26T13:39:28;20.20;99.90
31809;DHT22;18379;48.208;-1.518;2022-10-26T13:44:41;20.20;99.90
31809;DHT22;18379;48.208;-1.518;2022-10-26T13:49:51;20.30;99.90
31809;DHT22;18379;48.208;-1.518;2022-10-26T13:55:02;20.40;99.90
31809;DHT22;18379;48.208;-1.518;2022-10-26T14:00:19;20.30;99.90
31809;DHT22;18379;48.208;-1.518;2022-10-26T14:05:21;20.50;99.90
31809;DHT22;18379;48.208;-1.518;2022-10-26T14:15:27;20.60;99.90
31809;DHT22;18379;48.208;-1.518;2022-10-26T14:20:32;20.60;99.90
31809;DHT22;18379;48.208;-1.518;2022-10-26T14:25:33;20.70;99.90
31809;DHT22;18379;48.208;-1.518;2022-10-26T14:30:34;20.80;99.90
31809;DHT22;18379;48.208;-1.518;2022-10-26T14:35:36;20.90;99.90
31809;DHT22;18379;48.208;-1.518;2022-10-26T14:40:41;20.90;99.90
31809;DHT22;18379;48.208;-1.518;2022-10-26T14:45:47;20.80;99.90
31809;DHT22;18379;48.208;-1.518;2022-10-26T14:51:09;20.60;99.90
31809;DHT22;18379;48.208;-1.518;2022-10-26T15:11:34;21.00;99.90
31809;DHT22;18379;48.208;-1.518;2022-10-26T15:16:35;21.00;99.90
31809;DHT22;18379;48.208;-1.518;2022-10-26T15:21:38;21.00;99.90
31809;DHT22;18379;48.208;-1.518;2022-10-26T15:26:42;21.00;99.90
31809;DHT22;18379;48.208;-1.518;2022-10-26T15:31:43;20.90;99.90
31809;DHT22;18379;48.208;-1.518;2022-10-26T15:36:44;20.90;99.90
31809;DHT22;18379;48.208;-1.518;2022-10-26T15:41:46;21.00;99.90
31809;DHT22;18379;48.208;-1.518;2022-10-26T15:46:48;21.10;99.90
31809;DHT22;18379;48.208;-1.518;2022-10-26T15:51:49;21.10;99.90
31809;DHT22;18379;48.208;-1.518;2022-10-26T15:56:50;21.10;99.90
31809;DHT22;18379;48.208;-1.518;2022-10-26T16:01:50;21.20;99.90
31809;DHT22;18379;48.208;-1.518;2022-10-26T16:06:52;21.20;99.90
31809;DHT22;18379;48.208;-1.518;2022-10-26T16:11:53;21.10;99.90
31809;DHT22;18379;48.208;-1.518;2022-10-26T16:16:54;21.10;99.90
31809;DHT22;18379;48.208;-1.518;2022-10-26T16:21:54;21.00;99.90
31809;DHT22;18379;48.208;-1.518;2022-10-26T16:26:56;21.00;99.90
31809;DHT22;18379;48.208;-1.518;2022-10-26T16:31:57;20.90;99.90
31809;DHT22;18379;48.208;-1.518;2022-10-26T16:36:58;20.80;99.90
31809;DHT22;18379;48.208;-1.518;2022-10-26T16:41:59;20.70;99.90
31809;DHT22;18379;48.208;-1.518;2022-10-26T16:47:00;20.70;99.90
31809;DHT22;18379;48.208;-1.518;2022-10-26T16:52:01;20.60;99.90
31809;DHT22;18379;48.208;-1.518;2022-10-26T16:57:04;20.50;99.90
31809;DHT22;18379;48.208;-1.518;2022-10-26T17:02:05;20.40;99.90
31809;DHT22;18379;48.208;-1.518;2022-10-26T17:07:06;20.30;99.90
31809;DHT22;18379;48.208;-1.518;2022-10-26T17:12:06;20.20;99.90
31809;DHT22;18379;48.208;-1.518;2022-10-26T17:17:07;20.10;99.90
31809;DHT22;18379;48.208;-1.518;2022-10-26T17:22:10;20.10;99.90
31809;DHT22;18379;48.208;-1.518;2022-10-26T17:27:11;20.00;99.90
31809;DHT22;18379;48.208;-1.518;2022-10-26T17:32:13;20.00;99.90
31809;DHT22;18379;48.208;-1.518;2022-10-26T17:37:15;19.90;99.90
31809;DHT22;18379;48.208;-1.518;2022-10-26T17:42:16;19.90;99.90
31809;DHT22;18379;48.208;-1.518;2022-10-26T17:47:17;19.80;99.90
31809;DHT22;18379;48.208;-1.518;2022-10-26T17:52:17;19.80;99.90
31809;DHT22;18379;48.208;-1.518;2022-10-26T17:57:19;19.70;99.90
31809;DHT22;18379;48.208;-1.518;2022-10-26T18:02:19;19.70;99.90
31809;DHT22;18379;48.208;-1.518;2022-10-26T18:07:20;19.70;99.90
31809;DHT22;18379;48.208;-1.518;2022-10-26T18:12:22;19.60;99.90
31809;DHT22;18379;48.208;-1.518;2022-10-26T18:17:23;19.50;99.90
31809;DHT22;18379;48.208;-1.518;2022-10-26T18:22:24;19.40;99.90
31809;DHT22;18379;48.208;-1.518;2022-10-26T18:27:25;19.40;99.90
31809;DHT22;18379;48.208;-1.518;2022-10-26T18:32:26;19.30;99.90
31809;DHT22;18379;48.208;-1.518;2022-10-26T18:37:27;19.20;99.90
31809;DHT22;18379;48.208;-1.518;2022-10-26T18:42:28;19.20;99.90
31809;DHT22;18379;48.208;-1.518;2022-10-26T18:47:30;19.10;99.90
31809;DHT22;18379;48.208;-1.518;2022-10-26T18:52:31;19.10;99.90
31809;DHT22;18379;48.208;-1.518;2022-10-26T18:57:33;19.00;99.90
31809;DHT22;18379;48.208;-1.518;2022-10-26T19:02:34;19.00;99.90
31809;DHT22;18379;48.208;-1.518;2022-10-26T19:07:34;18.80;99.90
31809;DHT22;18379;48.208;-1.518;2022-10-26T19:12:38;18.80;99.90
31809;DHT22;18379;48.208;-1.518;2022-10-26T19:17:39;18.80;99.90
31809;DHT22;18379;48.208;-1.518;2022-10-26T19:22:39;18.70;99.90
31809;DHT22;18379;48.208;-1.518;2022-10-26T19:27:40;18.70;99.90
31809;DHT22;18379;48.208;-1.518;2022-10-26T19:32:44;18.60;99.90
31809;DHT22;18379;48.208;-1.518;2022-10-26T19:37:45;18.50;99.90
31809;DHT22;18379;48.208;-1.518;2022-10-26T19:42:45;18.40;99.90
31809;DHT22;18379;48.208;-1.518;2022-10-26T19:47:46;18.40;99.90
31809;DHT22;18379;48.208;-1.518;2022-10-26T19:52:47;18.30;99.90
31809;DHT22;18379;48.208;-1.518;2022-10-26T19:57:48;18.30;99.90
31809;DHT22;18379;48.208;-1.518;2022-10-26T20:02:49;18.20;99.90
31809;DHT22;18379;48.208;-1.518;2022-10-26T20:07:49;18.20;99.90
31809;DHT22;18379;48.208;-1.518;2022-10-26T20:12:50;18.10;99.90
31809;DHT22;18379;48.208;-1.518;2022-10-26T20:17:51;18.10;99.90
31809;DHT22;18379;48.208;-1.518;2022-10-26T20:22:52;18.00;99.90
31809;DHT22;18379;48.208;-1.518;2022-10-26T20:27:52;18.00;99.90
31809;DHT22;18379;48.208;-1.518;2022-10-26T20:32:55;17.80;99.90
31809;DHT22;18379;48.208;-1.518;2022-10-26T20:37:56;17.70;99.90
31809;DHT22;18379;48.208;-1.518;2022-10-26T20:42:58;17.70;99.90
31809;DHT22;18379;48.208;-1.518;2022-10-26T20:47:59;17.60;99.90
31809;DHT22;18379;48.208;-1.518;2022-10-26T21:03:18;17.40;99.90
31809;DHT22;18379;48.208;-1.518;2022-10-26T21:08:19;17.30;99.90
31809;DHT22;18379;48.208;-1.518;2022-10-26T21:13:20;17.30;99.90
31809;DHT22;18379;48.208;-1.518;2022-10-26T21:18:21;17.30;99.90
31809;DHT22;18379;48.208;-1.518;2022-10-26T21:23:21;17.30;99.90
31809;DHT22;18379;48.208;-1.518;2022-10-26T21:28:22;17.30;99.90
31809;DHT22;18379;48.208;-1.518;2022-10-26T21:33:23;17.20;99.90
31809;DHT22;18379;48.208;-1.518;2022-10-26T21:38:32;17.30;99.90
31809;DHT22;18379;48.208;-1.518;2022-10-26T21:43:34;17.30;99.90
31809;DHT22;18379;48.208;-1.518;2022-10-26T21:48:36;17.30;99.90
31809;DHT22;18379;48.208;-1.518;2022-10-26T21:53:37;17.40;99.90
31809;DHT22;18379;48.208;-1.518;2022-10-26T21:58:38;17.30;99.90
31809;DHT22;18379;48.208;-1.518;2022-10-26T22:03:40;17.30;99.90
31809;DHT22;18379;48.208;-1.518;2022-10-26T22:08:42;17.20;99.90
31809;DHT22;18379;48.208;-1.518;2022-10-26T22:13:44;17.10;99.90
31809;DHT22;18379;48.208;-1.518;2022-10-26T22:18:45;17.10;99.90
31809;DHT22;18379;48.208;-1.518;2022-10-26T22:23:47;17.00;99.90
31809;DHT22;18379;48.208;-1.518;2022-10-26T22:28:53;17.00;99.90
31809;DHT22;18379;48.208;-1.518;2022-10-26T22:33:59;16.90;99.90
31809;DHT22;18379;48.208;-1.518;2022-10-26T22:39:00;16.90;99.90
31809;DHT22;18379;48.208;-1.518;2022-10-26T22:44:01;17.00;99.90
31809;DHT22;18379;48.208;-1.518;2022-10-26T22:49:02;17.00;99.90
31809;DHT22;18379;48.208;-1.518;2022-10-26T22:54:04;17.00;99.90
31809;DHT22;18379;48.208;-1.518;2022-10-26T22:59:05;17.00;99.90
31809;DHT22;18379;48.208;-1.518;2022-10-26T23:04:06;16.90;99.90
31809;DHT22;18379;48.208;-1.518;2022-10-26T23:09:07;16.90;99.90
31809;DHT22;18379;48.208;-1.518;2022-10-26T23:14:08;16.90;99.90
31809;DHT22;18379;48.208;-1.518;2022-10-26T23:19:09;16.90;99.90
31809;DHT22;18379;48.208;-1.518;2022-10-26T23:24:10;16.90;99.90
31809;DHT22;18379;48.208;-1.518;2022-10-26T23:29:10;16.90;99.90
31809;DHT22;18379;48.208;-1.518;2022-10-26T23:34:11;16.90;99.90
31809;DHT22;18379;48.208;-1.518;2022-10-26T23:39:12;17.00;99.90
31809;DHT22;18379;48.208;-1.518;2022-10-26T23:44:13;17.00;99.90
31809;DHT22;18379;48.208;-1.518;2022-10-26T23:49:13;17.00;99.90
31809;DHT22;18379;48.208;-1.518;2022-10-26T23:54:14;17.00;99.90
31809;DHT22;18379;48.208;-1.518;2022-10-26T23:59:15;17.00;99.90
